sensor_id;sensor_type;location;lat;lon;timestamp;pressure;altitude;pressure_sealevel;temperature;humidity
66887;BME280;67239;51.680;5.976;2023-02-21T00:01:42;101974.81;;;8.58;94.46
66887;BME280;67239;51.680;5.976;2023-02-21T00:04:29;101972.19;;;8.58;94.64
66887;BME280;67239;51.680;5.976;2023-02-21T00:07:14;101973.06;;;8.59;94.68
66887;BME280;67239;51.680;5.976;2023-02-21T00:10:00;101968.69;;;8.59;94.75
66887;BME280;67239;51.680;5.976;2023-02-21T00:12:46;101973.06;;;8.59;94.35
66887;BME280;67239;51.680;5.976;2023-02-21T00:15:31;101966.94;;;8.58;94.78
66887;BME280;67239;51.680;5.976;2023-02-21T00:18:18;101977.44;;;8.58;94.73
66887;BME280;67239;51.680;5.976;2023-02-21T00:21:03;101980.97;;;8.57;94.83
66887;BME280;67239;51.680;5.976;2023-02-21T00:23:49;101977.44;;;8.58;94.50
66887;BME280;67239;51.680;5.976;2023-02-21T00:26:35;101975.69;;;8.55;94.60
66887;BME280;67239;51.680;5.976;2023-02-21T00:29:21;101975.69;;;8.55;94.78
66887;BME280;67239;51.680;5.976;2023-02-21T00:32:07;101973.97;;;8.54;94.83
66887;BME280;67239;51.680;5.976;2023-02-21T00:34:53;101973.06;;;8.54;94.50
66887;BME280;67239;51.680;5.976;2023-02-21T00:37:39;101971.34;;;8.51;94.82
66887;BME280;67239;51.680;5.976;2023-02-21T00:40:24;101968.72;;;8.51;94.99
66887;BME280;67239;51.680;5.976;2023-02-21T00:43:10;101973.94;;;8.53;95.11
66887;BME280;67239;51.680;5.976;2023-02-21T00:45:56;101968.72;;;8.51;95.17
66887;BME280;67239;51.680;5.976;2023-02-21T00:48:42;101973.06;;;8.51;95.29
66887;BME280;67239;51.680;5.976;2023-02-21T00:51:27;101966.94;;;8.52;95.26
66887;BME280;67239;51.680;5.976;2023-02-21T00:54:13;101966.09;;;8.51;95.38
66887;BME280;67239;51.680;5.976;2023-02-21T00:56:58;101959.94;;;8.51;95.20
66887;BME280;67239;51.680;5.976;2023-02-21T00:59:44;101962.56;;;8.51;95.19
66887;BME280;67239;51.680;5.976;2023-02-21T01:02:30;101959.97;;;8.48;95.22
66887;BME280;67239;51.680;5.976;2023-02-21T01:05:15;101962.59;;;8.48;95.08
66887;BME280;67239;51.680;5.976;2023-02-21T01:08:02;101951.19;;;8.46;95.29
66887;BME280;67239;51.680;5.976;2023-02-21T01:10:47;101944.16;;;8.46;95.57
66887;BME280;67239;51.680;5.976;2023-02-21T01:13:32;101945.03;;;8.45;95.40
66887;BME280;67239;51.680;5.976;2023-02-21T01:16:18;101947.66;;;8.45;95.31
66887;BME280;67239;51.680;5.976;2023-02-21T01:19:05;101952.94;;;8.44;95.51
66887;BME280;67239;51.680;5.976;2023-02-21T01:21:50;101952.94;;;8.42;95.43
66887;BME280;67239;51.680;5.976;2023-02-21T01:24:36;101945.06;;;8.42;95.53
66887;BME280;67239;51.680;5.976;2023-02-21T01:27:21;101948.56;;;8.39;95.54
66887;BME280;67239;51.680;5.976;2023-02-21T01:30:07;101943.31;;;8.38;95.66
66887;BME280;67239;51.680;5.976;2023-02-21T01:32:53;101941.56;;;8.38;95.96
66887;BME280;67239;51.680;5.976;2023-02-21T01:35:40;101941.56;;;8.37;96.09
66887;BME280;67239;51.680;5.976;2023-02-21T01:38:26;101942.44;;;8.36;96.03
66887;BME280;67239;51.680;5.976;2023-02-21T01:41:12;101940.69;;;8.36;96.14
66887;BME280;67239;51.680;5.976;2023-02-21T01:44:03;101944.19;;;8.35;95.98
66887;BME280;67239;51.680;5.976;2023-02-21T01:46:52;101931.94;;;8.34;96.22
66887;BME280;67239;51.680;5.976;2023-02-21T01:49:39;101926.69;;;8.34;95.96
66887;BME280;67239;51.680;5.976;2023-02-21T01:52:25;101925.81;;;8.32;96.09
66887;BME280;67239;51.680;5.976;2023-02-21T01:55:11;101930.22;;;8.32;95.96
66887;BME280;67239;51.680;5.976;2023-02-21T01:57:57;101932.81;;;8.30;96.27
66887;BME280;67239;51.680;5.976;2023-02-21T02:00:43;101927.59;;;8.32;96.29
66887;BME280;67239;51.680;5.976;2023-02-21T02:03:37;101921.47;;;8.28;96.24
66887;BME280;67239;51.680;5.976;2023-02-21T02:06:25;101914.47;;;8.27;96.30
66887;BME280;67239;51.680;5.976;2023-02-21T02:09:19;101918.84;;;8.28;96.53
66887;BME280;67239;51.680;5.976;2023-02-21T02:12:44;101918.81;;;8.27;96.61
66887;BME280;67239;51.680;5.976;2023-02-21T02:31:50;101910.09;;;8.15;96.85
66887;BME280;67239;51.680;5.976;2023-02-21T02:37:50;101910.97;;;8.17;96.94
66887;BME280;67239;51.680;5.976;2023-02-21T02:43:19;101914.47;;;8.16;97.09
66887;BME280;67239;51.680;5.976;2023-02-21T02:46:01;101908.38;;;8.16;97.08
66887;BME280;67239;51.680;5.976;2023-02-21T02:49:17;101915.34;;;8.15;97.37
66887;BME280;67239;51.680;5.976;2023-02-21T02:51:48;101904.88;;;8.14;97.54
66887;BME280;67239;51.680;5.976;2023-02-21T02:54:20;101906.59;;;8.16;97.58
66887;BME280;67239;51.680;5.976;2023-02-21T02:56:47;101903.13;;;8.16;97.46
66887;BME280;67239;51.680;5.976;2023-02-21T02:59:22;101899.59;;;8.17;97.51
66887;BME280;67239;51.680;5.976;2023-02-21T03:05:21;101899.59;;;8.15;97.58
66887;BME280;67239;51.680;5.976;2023-02-21T03:11:13;101894.38;;;8.12;97.63
66887;BME280;67239;51.680;5.976;2023-02-21T03:13:50;101887.34;;;8.09;97.67
66887;BME280;67239;51.680;5.976;2023-02-21T03:16:30;101889.13;;;8.09;97.79
66887;BME280;67239;51.680;5.976;2023-02-21T03:19:06;101890.88;;;8.07;97.99
66887;BME280;67239;51.680;5.976;2023-02-21T03:21:41;101893.50;;;8.05;97.96
66887;BME280;67239;51.680;5.976;2023-02-21T03:24:16;101898.75;;;8.07;98.18
66887;BME280;67239;51.680;5.976;2023-02-21T03:26:48;101896.13;;;8.05;98.12
66887;BME280;67239;51.680;5.976;2023-02-21T03:29:46;101901.38;;;8.07;98.41
66887;BME280;67239;51.680;5.976;2023-02-21T03:32:21;101890.88;;;8.08;98.34
66887;BME280;67239;51.680;5.976;2023-02-21T03:34:54;101890.88;;;8.08;98.19
66887;BME280;67239;51.680;5.976;2023-02-21T03:37:38;101891.75;;;8.07;98.36
66887;BME280;67239;51.680;5.976;2023-02-21T03:40:15;101891.75;;;8.07;98.41
66887;BME280;67239;51.680;5.976;2023-02-21T03:42:47;101897.88;;;8.08;98.63
66887;BME280;67239;51.680;5.976;2023-02-21T03:45:16;101901.41;;;8.08;98.58
66887;BME280;67239;51.680;5.976;2023-02-21T03:47:52;101892.63;;;8.06;98.45
66887;BME280;67239;51.680;5.976;2023-02-21T03:50:19;101893.50;;;8.08;98.48
66887;BME280;67239;51.680;5.976;2023-02-21T03:52:46;101890.88;;;8.07;98.63
66887;BME280;67239;51.680;5.976;2023-02-21T03:55:13;101906.63;;;8.07;98.69
66887;BME280;67239;51.680;5.976;2023-02-21T03:57:41;101897.00;;;8.07;98.74
66887;BME280;67239;51.680;5.976;2023-02-21T04:00:09;101903.13;;;8.09;98.71
66887;BME280;67239;51.680;5.976;2023-02-21T04:02:42;101893.50;;;8.05;98.85
66887;BME280;67239;51.680;5.976;2023-02-21T04:05:19;101888.25;;;8.05;98.97
66887;BME280;67239;51.680;5.976;2023-02-21T04:07:47;101883.88;;;8.06;98.86
66887;BME280;67239;51.680;5.976;2023-02-21T04:10:15;101890.00;;;8.06;99.02
66887;BME280;67239;51.680;5.976;2023-02-21T04:12:44;101890.88;;;8.07;98.90
66887;BME280;67239;51.680;5.976;2023-02-21T04:15:11;101886.50;;;8.04;98.92
66887;BME280;67239;51.680;5.976;2023-02-21T04:17:39;101887.38;;;8.05;98.94
66887;BME280;67239;51.680;5.976;2023-02-21T04:20:08;101882.13;;;8.06;99.21
66887;BME280;67239;51.680;5.976;2023-02-21T04:22:41;101882.13;;;8.08;99.15
66887;BME280;67239;51.680;5.976;2023-02-21T04:25:14;101887.34;;;8.09;98.86
66887;BME280;67239;51.680;5.976;2023-02-21T04:27:48;101886.50;;;8.06;98.91
66887;BME280;67239;51.680;5.976;2023-02-21T04:30:15;101879.50;;;8.05;98.93
66887;BME280;67239;51.680;5.976;2023-02-21T04:32:43;101884.78;;;8.02;98.87
66887;BME280;67239;51.680;5.976;2023-02-21T04:35:13;101883.00;;;8.04;99.25
66887;BME280;67239;51.680;5.976;2023-02-21T04:37:41;101874.28;;;8.02;99.17
66887;BME280;67239;51.680;5.976;2023-02-21T04:40:12;101873.41;;;8.00;99.23
66887;BME280;67239;51.680;5.976;2023-02-21T04:42:39;101877.78;;;8.01;99.39
66887;BME280;67239;51.680;5.976;2023-02-21T04:45:07;101869.88;;;7.99;99.32
66887;BME280;67239;51.680;5.976;2023-02-21T04:47:35;101868.16;;;8.00;99.51
66887;BME280;67239;51.680;5.976;2023-02-21T04:50:03;101868.16;;;7.98;99.58
66887;BME280;67239;51.680;5.976;2023-02-21T04:52:31;101872.53;;;7.96;99.57
66887;BME280;67239;51.680;5.976;2023-02-21T04:54:58;101868.16;;;7.97;99.59
66887;BME280;67239;51.680;5.976;2023-02-21T04:57:25;101870.78;;;7.98;99.69
66887;BME280;67239;51.680;5.976;2023-02-21T04:59:59;101865.50;;;8.00;99.70
66887;BME280;67239;51.680;5.976;2023-02-21T05:02:27;101869.88;;;7.98;99.88
66887;BME280;67239;51.680;5.976;2023-02-21T05:04:54;101866.41;;;7.97;99.77
66887;BME280;67239;51.680;5.976;2023-02-21T05:07:21;101870.78;;;7.98;99.84
66887;BME280;67239;51.680;5.976;2023-02-21T05:09:48;101861.16;;;7.97;99.95
66887;BME280;67239;51.680;5.976;2023-02-21T05:12:15;101863.75;;;7.99;99.93
66887;BME280;67239;51.680;5.976;2023-02-21T05:14:42;101862.88;;;8.00;100.00
66887;BME280;67239;51.680;5.976;2023-02-21T05:17:09;101870.75;;;8.01;99.80
66887;BME280;67239;51.680;5.976;2023-02-21T05:19:36;101863.75;;;7.99;99.83
66887;BME280;67239;51.680;5.976;2023-02-21T05:22:03;101860.25;;;8.00;100.00
66887;BME280;67239;51.680;5.976;2023-02-21T05:24:33;101866.41;;;7.97;100.00
66887;BME280;67239;51.680;5.976;2023-02-21T05:27:00;101873.38;;;7.97;100.00
66887;BME280;67239;51.680;5.976;2023-02-21T05:29:28;101874.25;;;7.96;100.00
66887;BME280;67239;51.680;5.976;2023-02-21T05:31:55;101874.28;;;7.97;100.00
66887;BME280;67239;51.680;5.976;2023-02-21T05:34:22;101878.66;;;8.00;100.00
66887;BME280;67239;51.680;5.976;2023-02-21T05:36:49;101880.38;;;7.99;100.00
66887;BME280;67239;51.680;5.976;2023-02-21T05:39:16;101876.03;;;7.97;100.00
66887;BME280;67239;51.680;5.976;2023-02-21T05:41:48;101869.91;;;7.96;100.00
66887;BME280;67239;51.680;5.976;2023-02-21T05:44:17;101865.50;;;7.97;100.00
66887;BME280;67239;51.680;5.976;2023-02-21T05:46:44;101865.50;;;7.97;100.00
66887;BME280;67239;51.680;5.976;2023-02-21T05:49:12;101869.91;;;7.96;100.00
66887;BME280;67239;51.680;5.976;2023-02-21T05:51:41;101878.66;;;7.95;100.00
66887;BME280;67239;51.680;5.976;2023-02-21T05:54:14;101878.66;;;7.95;100.00
66887;BME280;67239;51.680;5.976;2023-02-21T05:56:45;101878.66;;;7.92;100.00
66887;BME280;67239;51.680;5.976;2023-02-21T05:59:14;101872.53;;;7.90;100.00
66887;BME280;67239;51.680;5.976;2023-02-21T06:01:42;101884.81;;;7.88;100.00
66887;BME280;67239;51.680;5.976;2023-02-21T06:04:10;101876.03;;;7.87;100.00
66887;BME280;67239;51.680;5.976;2023-02-21T06:06:37;101882.19;;;7.85;100.00
66887;BME280;67239;51.680;5.976;2023-02-21T06:09:05;101881.28;;;7.84;100.00
66887;BME280;67239;51.680;5.976;2023-02-21T06:11:34;101885.66;;;7.85;100.00
66887;BME280;67239;51.680;5.976;2023-02-21T06:14:06;101881.31;;;7.83;100.00
66887;BME280;67239;51.680;5.976;2023-02-21T06:16:36;101889.19;;;7.83;100.00
66887;BME280;67239;51.680;5.976;2023-02-21T06:19:06;101892.69;;;7.82;100.00
66887;BME280;67239;51.680;5.976;2023-02-21T06:21:34;101890.06;;;7.80;100.00
66887;BME280;67239;51.680;5.976;2023-02-21T06:24:02;101889.19;;;7.80;100.00
66887;BME280;67239;51.680;5.976;2023-02-21T06:26:30;101887.44;;;7.80;100.00
66887;BME280;67239;51.680;5.976;2023-02-21T06:28:57;101896.19;;;7.81;100.00
66887;BME280;67239;51.680;5.976;2023-02-21T06:31:24;101894.44;;;7.83;100.00
66887;BME280;67239;51.680;5.976;2023-02-21T06:33:52;101887.44;;;7.82;100.00
66887;BME280;67239;51.680;5.976;2023-02-21T06:36:22;101885.69;;;7.81;100.00
66887;BME280;67239;51.680;5.976;2023-02-21T06:38:53;101897.06;;;7.80;100.00
66887;BME280;67239;51.680;5.976;2023-02-21T06:41:25;101897.06;;;7.81;100.00
66887;BME280;67239;51.680;5.976;2023-02-21T06:43:55;101893.56;;;7.82;100.00
66887;BME280;67239;51.680;5.976;2023-02-21T06:46:25;101887.44;;;7.82;100.00
66887;BME280;67239;51.680;5.976;2023-02-21T06:48:54;101888.31;;;7.81;100.00
66887;BME280;67239;51.680;5.976;2023-02-21T06:51:21;101890.94;;;7.81;100.00
66887;BME280;67239;51.680;5.976;2023-02-21T06:53:56;101882.19;;;7.80;100.00
66887;BME280;67239;51.680;5.976;2023-02-21T06:56:23;101892.69;;;7.78;100.00
66887;BME280;67239;51.680;5.976;2023-02-21T06:58:51;101886.56;;;7.78;100.00
66887;BME280;67239;51.680;5.976;2023-02-21T07:01:18;101894.44;;;7.80;100.00
66887;BME280;67239;51.680;5.976;2023-02-21T07:03:45;101897.06;;;7.81;100.00
66887;BME280;67239;51.680;5.976;2023-02-21T07:06:13;101890.94;;;7.81;100.00
66887;BME280;67239;51.680;5.976;2023-02-21T07:08:41;101892.69;;;7.80;100.00
66887;BME280;67239;51.680;5.976;2023-02-21T07:11:08;101892.69;;;7.82;100.00
66887;BME280;67239;51.680;5.976;2023-02-21T07:13:36;101908.41;;;7.91;100.00
66887;BME280;67239;51.680;5.976;2023-02-21T07:16:06;101911.91;;;7.98;100.00
66887;BME280;67239;51.680;5.976;2023-02-21T07:18:33;101902.28;;;8.03;100.00
66887;BME280;67239;51.680;5.976;2023-02-21T07:21:00;101894.38;;;8.06;100.00
66887;BME280;67239;51.680;5.976;2023-02-21T07:23:27;101894.38;;;8.12;100.00
66887;BME280;67239;51.680;5.976;2023-02-21T07:25:54;101888.22;;;8.16;100.00
66887;BME280;67239;51.680;5.976;2023-02-21T07:28:21;101900.44;;;8.22;100.00
66887;BME280;67239;51.680;5.976;2023-02-21T07:30:48;101912.69;;;8.28;100.00
66887;BME280;67239;51.680;5.976;2023-02-21T07:33:15;101914.44;;;8.30;100.00
66887;BME280;67239;51.680;5.976;2023-02-21T07:35:42;101912.69;;;8.31;100.00
66887;BME280;67239;51.680;5.976;2023-02-21T07:38:09;101904.78;;;8.32;100.00
66887;BME280;67239;51.680;5.976;2023-02-21T07:40:37;101899.53;;;8.37;100.00
66887;BME280;67239;51.680;5.976;2023-02-21T07:43:04;101901.25;;;8.41;100.00
66887;BME280;67239;51.680;5.976;2023-02-21T07:45:31;101904.78;;;8.43;100.00
66887;BME280;67239;51.680;5.976;2023-02-21T07:47:58;101907.41;;;8.48;100.00
66887;BME280;67239;51.680;5.976;2023-02-21T07:50:25;101913.53;;;8.48;100.00
66887;BME280;67239;51.680;5.976;2023-02-21T07:52:52;101901.25;;;8.46;100.00
66887;BME280;67239;51.680;5.976;2023-02-21T07:55:19;101896.88;;;8.45;100.00
66887;BME280;67239;51.680;5.976;2023-02-21T07:57:47;101899.50;;;8.49;100.00
66887;BME280;67239;51.680;5.976;2023-02-21T08:00:14;101900.38;;;8.54;100.00
66887;BME280;67239;51.680;5.976;2023-02-21T08:02:46;101904.72;;;8.55;100.00
66887;BME280;67239;51.680;5.976;2023-02-21T08:05:18;101911.72;;;8.57;100.00
66887;BME280;67239;51.680;5.976;2023-02-21T08:07:47;101908.22;;;8.59;100.00
66887;BME280;67239;51.680;5.976;2023-02-21T08:10:20;101903.81;;;8.61;100.00
66887;BME280;67239;51.680;5.976;2023-02-21T08:12:52;101905.59;;;8.59;99.82
66887;BME280;67239;51.680;5.976;2023-02-21T08:15:19;101909.09;;;8.60;99.58
66887;BME280;67239;51.680;5.976;2023-02-21T08:17:47;101917.84;;;8.62;99.52
66887;BME280;67239;51.680;5.976;2023-02-21T08:20:15;101909.97;;;8.62;99.66
66887;BME280;67239;51.680;5.976;2023-02-21T08:22:43;101906.44;;;8.67;99.63
66887;BME280;67239;51.680;5.976;2023-02-21T08:25:12;101908.16;;;8.70;99.44
66887;BME280;67239;51.680;5.976;2023-02-21T08:27:42;101905.50;;;8.75;99.51
66887;BME280;67239;51.680;5.976;2023-02-21T08:30:14;101904.59;;;8.77;99.17
66887;BME280;67239;51.680;5.976;2023-02-21T08:32:42;101904.59;;;8.77;99.19
66887;BME280;67239;51.680;5.976;2023-02-21T08:35:14;101903.75;;;8.80;98.85
66887;BME280;67239;51.680;5.976;2023-02-21T08:37:47;101894.97;;;8.79;98.86
66887;BME280;67239;51.680;5.976;2023-02-21T08:40:19;101900.19;;;8.84;98.95
66887;BME280;67239;51.680;5.976;2023-02-21T08:42:51;101899.31;;;8.88;98.88
66887;BME280;67239;51.680;5.976;2023-02-21T08:45:21;101891.41;;;8.88;98.24
66887;BME280;67239;51.680;5.976;2023-02-21T08:47:50;101887.91;;;8.86;97.90
66887;BME280;67239;51.680;5.976;2023-02-21T08:50:18;101896.66;;;8.88;97.93
66887;BME280;67239;51.680;5.976;2023-02-21T08:52:49;101892.28;;;8.90;98.11
66887;BME280;67239;51.680;5.976;2023-02-21T08:55:17;101898.38;;;8.92;98.03
66887;BME280;67239;51.680;5.976;2023-02-21T08:57:50;101894.00;;;8.93;97.28
66887;BME280;67239;51.680;5.976;2023-02-21T09:00:21;101892.28;;;8.90;97.46
66887;BME280;67239;51.680;5.976;2023-02-21T09:02:50;101894.91;;;8.85;97.45
66887;BME280;67239;51.680;5.976;2023-02-21T09:05:23;101887.06;;;8.79;97.12
66887;BME280;67239;51.680;5.976;2023-02-21T09:07:56;101891.50;;;8.73;97.00
66887;BME280;67239;51.680;5.976;2023-02-21T09:10:27;101888.03;;;8.66;97.04
66887;BME280;67239;51.680;5.976;2023-02-21T09:12:56;101884.56;;;8.61;97.36
66887;BME280;67239;51.680;5.976;2023-02-21T09:15:23;101892.44;;;8.58;97.48
66887;BME280;67239;51.680;5.976;2023-02-21T09:17:51;101896.84;;;8.54;97.60
66887;BME280;67239;51.680;5.976;2023-02-21T09:20:22;101889.00;;;8.49;97.42
66887;BME280;67239;51.680;5.976;2023-02-21T09:22:51;101888.97;;;8.46;97.61
66887;BME280;67239;51.680;5.976;2023-02-21T09:25:21;101894.22;;;8.46;97.69
66887;BME280;67239;51.680;5.976;2023-02-21T09:27:51;101882.84;;;8.46;97.90
66887;BME280;67239;51.680;5.976;2023-02-21T09:30:22;101888.13;;;8.47;98.09
66887;BME280;67239;51.680;5.976;2023-02-21T09:32:52;101888.13;;;8.49;98.64
66887;BME280;67239;51.680;5.976;2023-02-21T09:35:21;101888.09;;;8.52;98.40
66887;BME280;67239;51.680;5.976;2023-02-21T09:37:48;101874.06;;;8.53;98.58
66887;BME280;67239;51.680;5.976;2023-02-21T09:43:10;101872.31;;;8.57;97.98
66887;BME280;67239;51.680;5.976;2023-02-21T09:45:51;101872.31;;;8.57;97.88
66887;BME280;67239;51.680;5.976;2023-02-21T09:48:22;101872.31;;;8.58;97.83
66887;BME280;67239;51.680;5.976;2023-02-21T09:50:56;101874.06;;;8.59;98.04
66887;BME280;67239;51.680;5.976;2023-02-21T09:53:35;101872.28;;;8.61;97.88
66887;BME280;67239;51.680;5.976;2023-02-21T09:56:26;101874.91;;;8.63;97.53
66887;BME280;67239;51.680;5.976;2023-02-21T09:59:00;101877.53;;;8.63;97.58
66887;BME280;67239;51.680;5.976;2023-02-21T10:05:03;101881.00;;;8.69;97.35
66887;BME280;67239;51.680;5.976;2023-02-21T10:08:06;101877.50;;;8.72;97.49
66887;BME280;67239;51.680;5.976;2023-02-21T10:10:50;101878.34;;;8.76;97.55
66887;BME280;67239;51.680;5.976;2023-02-21T10:13:41;101879.16;;;8.81;97.64
66887;BME280;67239;51.680;5.976;2023-02-21T10:16:28;101878.28;;;8.83;97.63
66887;BME280;67239;51.680;5.976;2023-02-21T10:19:15;101879.13;;;8.85;97.40
66887;BME280;67239;51.680;5.976;2023-02-21T10:21:48;101882.63;;;8.88;97.48
66887;BME280;67239;51.680;5.976;2023-02-21T10:24:24;101883.47;;;8.91;97.42
66887;BME280;67239;51.680;5.976;2023-02-21T10:32:07;101879.03;;;9.01;97.33
66887;BME280;67239;51.680;5.976;2023-02-21T10:34:34;101870.28;;;9.02;97.11
66887;BME280;67239;51.680;5.976;2023-02-21T10:39:59;101875.50;;;9.07;97.57
66887;BME280;67239;51.680;5.976;2023-02-21T10:42:50;101880.75;;;9.10;97.30
66887;BME280;67239;51.680;5.976;2023-02-21T10:45:26;101873.75;;;9.09;97.26
66887;BME280;67239;51.680;5.976;2023-02-21T10:48:03;101878.06;;;9.13;97.32
66887;BME280;67239;51.680;5.976;2023-02-21T10:50:43;101876.28;;;9.18;97.61
66887;BME280;67239;51.680;5.976;2023-02-21T10:53:38;101880.66;;;9.21;97.40
66887;BME280;67239;51.680;5.976;2023-02-21T10:59:01;101884.13;;;9.26;97.01
66887;BME280;67239;51.680;5.976;2023-02-21T11:01:35;101877.94;;;9.30;97.47
66887;BME280;67239;51.680;5.976;2023-02-21T11:04:24;101877.03;;;9.32;97.07
66887;BME280;67239;51.680;5.976;2023-02-21T11:09:44;101877.03;;;9.32;96.97
66887;BME280;67239;51.680;5.976;2023-02-21T11:17:23;101866.44;;;9.42;96.69
66887;BME280;67239;51.680;5.976;2023-02-21T11:19:52;101869.00;;;9.46;96.85
66887;BME280;67239;51.680;5.976;2023-02-21T11:22:23;101865.47;;;9.51;96.60
66887;BME280;67239;51.680;5.976;2023-02-21T11:24:58;101868.03;;;9.57;96.42
66887;BME280;67239;51.680;5.976;2023-02-21T11:27:34;101867.16;;;9.58;96.30
66887;BME280;67239;51.680;5.976;2023-02-21T11:30:17;101861.00;;;9.59;96.04
66887;BME280;67239;51.680;5.976;2023-02-21T11:32:51;101861.88;;;9.58;95.97
66887;BME280;67239;51.680;5.976;2023-02-21T11:35:28;101853.16;;;9.56;95.98
66887;BME280;67239;51.680;5.976;2023-02-21T11:38:09;101858.41;;;9.57;96.01
66887;BME280;67239;51.680;5.976;2023-02-21T11:43:53;101846.19;;;9.48;94.86
66887;BME280;67239;51.680;5.976;2023-02-21T11:46:44;101846.19;;;9.50;94.90
66887;BME280;67239;51.680;5.976;2023-02-21T11:51:45;101844.34;;;9.57;94.98
66887;BME280;67239;51.680;5.976;2023-02-21T11:54:25;101843.41;;;9.64;94.95
66887;BME280;67239;51.680;5.976;2023-02-21T11:57:08;101842.53;;;9.65;94.73
66887;BME280;67239;51.680;5.976;2023-02-21T12:05:46;101835.38;;;9.78;94.64
66887;BME280;67239;51.680;5.976;2023-02-21T12:08:51;101836.19;;;9.82;94.30
66887;BME280;67239;51.680;5.976;2023-02-21T12:20:20;101814.22;;;9.86;93.81
66887;BME280;67239;51.680;5.976;2023-02-21T12:32:15;101802.66;;;9.98;93.78
66887;BME280;67239;51.680;5.976;2023-02-21T12:41:19;101800.06;;;9.93;92.32
66887;BME280;67239;51.680;5.976;2023-02-21T12:44:17;101789.56;;;9.91;92.17
66887;BME280;67239;51.680;5.976;2023-02-21T12:47:00;101794.84;;;9.91;91.45
66887;BME280;67239;51.680;5.976;2023-02-21T12:50:01;101798.34;;;9.90;91.74
66887;BME280;67239;51.680;5.976;2023-02-21T12:52:40;101793.03;;;9.93;91.91
66887;BME280;67239;51.680;5.976;2023-02-21T12:55:23;101785.97;;;9.97;92.18
66887;BME280;67239;51.680;5.976;2023-02-21T12:58:00;101785.97;;;9.99;91.41
66887;BME280;67239;51.680;5.976;2023-02-21T13:00:41;101782.44;;;9.98;91.41
66887;BME280;67239;51.680;5.976;2023-02-21T13:06:16;101780.66;;;10.02;91.45
66887;BME280;67239;51.680;5.976;2023-02-21T13:11:38;101772.69;;;10.05;91.78
66887;BME280;67239;51.680;5.976;2023-02-21T13:14:50;101779.75;;;10.04;91.79
66887;BME280;67239;51.680;5.976;2023-02-21T13:17:25;101775.34;;;10.03;91.15
66887;BME280;67239;51.680;5.976;2023-02-21T13:20:06;101771.00;;;9.99;91.01
66887;BME280;67239;51.680;5.976;2023-02-21T13:22:45;101768.44;;;9.96;91.62
66887;BME280;67239;51.680;5.976;2023-02-21T13:28:51;101773.69;;;9.94;91.54
66887;BME280;67239;51.680;5.976;2023-02-21T13:31:24;101766.75;;;9.90;90.00
66887;BME280;67239;51.680;5.976;2023-02-21T13:34:06;101758.91;;;9.84;90.67
66887;BME280;67239;51.680;5.976;2023-02-21T13:41:37;101744.84;;;9.85;91.17
66887;BME280;67239;51.680;5.976;2023-02-21T13:44:11;101748.31;;;9.90;91.17
66887;BME280;67239;51.680;5.976;2023-02-21T13:49:43;101749.06;;;9.99;91.01
66887;BME280;67239;51.680;5.976;2023-02-21T14:02:55;101730.41;;;10.16;90.47
66887;BME280;67239;51.680;5.976;2023-02-21T14:08:43;101732.09;;;10.20;89.99
66887;BME280;67239;51.680;5.976;2023-02-21T14:11:22;101728.59;;;10.19;90.47
66887;BME280;67239;51.680;5.976;2023-02-21T14:16:44;101732.97;;;10.20;90.16
66887;BME280;67239;51.680;5.976;2023-02-21T14:22:15;101716.41;;;10.12;90.28
66887;BME280;67239;51.680;5.976;2023-02-21T14:24:51;101726.97;;;10.07;90.11
66887;BME280;67239;51.680;5.976;2023-02-21T14:27:37;101728.78;;;10.04;90.11
66887;BME280;67239;51.680;5.976;2023-02-21T14:32:46;101732.44;;;9.93;89.52
66887;BME280;67239;51.680;5.976;2023-02-21T14:35:44;101727.25;;;9.90;89.64
66887;BME280;67239;51.680;5.976;2023-02-21T14:38:26;101722.03;;;9.84;89.69
66887;BME280;67239;51.680;5.976;2023-02-21T14:41:35;101722.09;;;9.81;89.68
66887;BME280;67239;51.680;5.976;2023-02-21T14:44:32;101723.06;;;9.75;89.72
66887;BME280;67239;51.680;5.976;2023-02-21T14:51:08;101724.88;;;9.69;90.01
66887;BME280;67239;51.680;5.976;2023-02-21T15:03:07;101713.75;;;9.45;90.20
66887;BME280;67239;51.680;5.976;2023-02-21T15:05:55;101716.41;;;9.42;90.46
66887;BME280;67239;51.680;5.976;2023-02-21T15:08:45;101718.22;;;9.40;90.66
66887;BME280;67239;51.680;5.976;2023-02-21T15:14:22;101712.06;;;9.36;90.83
66887;BME280;67239;51.680;5.976;2023-02-21T15:16:58;101710.41;;;9.30;90.92
66887;BME280;67239;51.680;5.976;2023-02-21T15:19:38;101713.03;;;9.29;91.14
66887;BME280;67239;51.680;5.976;2023-02-21T15:22:24;101711.31;;;9.28;90.85
66887;BME280;67239;51.680;5.976;2023-02-21T15:25:13;101700.81;;;9.26;91.19
66887;BME280;67239;51.680;5.976;2023-02-21T15:35:37;101698.31;;;9.15;91.24
66887;BME280;67239;51.680;5.976;2023-02-21T15:38:17;101694.78;;;9.15;91.17
66887;BME280;67239;51.680;5.976;2023-02-21T15:40:53;101689.56;;;9.13;91.25
66887;BME280;67239;51.680;5.976;2023-02-21T15:43:30;101691.28;;;9.14;91.31
66887;BME280;67239;51.680;5.976;2023-02-21T15:46:00;101691.28;;;9.13;91.20
66887;BME280;67239;51.680;5.976;2023-02-21T15:48:31;101693.91;;;9.13;91.39
66887;BME280;67239;51.680;5.976;2023-02-21T15:51:02;101691.28;;;9.13;91.42
66887;BME280;67239;51.680;5.976;2023-02-21T15:53:32;101690.44;;;9.12;91.58
66887;BME280;67239;51.680;5.976;2023-02-21T15:56:35;101685.16;;;9.15;91.57
66887;BME280;67239;51.680;5.976;2023-02-21T15:59:15;101692.13;;;9.16;91.82
66887;BME280;67239;51.680;5.976;2023-02-21T16:02:21;101681.63;;;9.15;91.70
66887;BME280;67239;51.680;5.976;2023-02-21T16:04:51;101682.53;;;9.12;91.77
66887;BME280;67239;51.680;5.976;2023-02-21T16:07:32;101677.28;;;9.12;91.62
66887;BME280;67239;51.680;5.976;2023-02-21T16:10:07;101677.31;;;9.09;91.76
66887;BME280;67239;51.680;5.976;2023-02-21T16:12:38;101675.63;;;9.05;91.71
66887;BME280;67239;51.680;5.976;2023-02-21T16:15:25;101676.47;;;9.06;91.70
66887;BME280;67239;51.680;5.976;2023-02-21T16:17:57;101679.13;;;9.04;91.59